This is the latest recevied weather packets stored in our database for station/object CW79215. If no packets are shown the sender has not sent any weather packets the latest 10 day(s).
| Time | Temp. | Humidity | Pressure | Rain* | Wind** | Luminosity | Snow |
|---|---|---|---|---|---|---|---|
| 1777520235 | 11.11° C | 36% | 1026 hPa | - | - | - | - |
| 1777519335 | 10.56° C | 36% | 1026.1 hPa | - | - | - | - |
| 1777518434 | 10.56° C | 37% | 1026.1 hPa | - | - | - | - |
| 1777517534 | 11.11° C | 46% | 1026 hPa | - | - | - | - |
| 1777516634 | 11.67° C | 35% | 1025.9 hPa | - | - | - | - |
| 1777515734 | 10.56° C | 39% | 1026 hPa | - | - | - | - |
| 1777514834 | 11.11° C | 38% | 1025.9 hPa | - | - | - | - |
| 1777513934 | 10° C | 37% | 1026 hPa | - | - | - | - |
| 1777513034 | 11.11° C | 39% | 1025.8 hPa | - | - | - | - |
| 1777512134 | 11.11° C | 36% | 1025.8 hPa | - | - | - | - |
| 1777511234 | 12.22° C | 33% | 1025.7 hPa | - | - | - | - |
| 1777510333 | 12.22° C | 34% | 1025.7 hPa | - | - | - | - |
| 1777509433 | 12.22° C | 33% | 1025.6 hPa | - | - | - | - |
| 1777508533 | 12.78° C | 35% | 1025.5 hPa | - | - | - | - |
| 1777507633 | 12.78° C | 33% | 1025.4 hPa | - | - | - | - |
| 1777506733 | 12.22° C | 35% | 1025.3 hPa | - | - | - | - |
| 1777505833 | 12.22° C | 35% | 1025.6 hPa | - | - | - | - |
| 1777504933 | 12.22° C | 36% | 1025.5 hPa | - | - | - | - |
| 1777504033 | 12.22° C | 36% | 1025.6 hPa | - | - | - | - |
| 1777503133 | 12.78° C | 36% | 1025.6 hPa | - | - | - | - |
| 1777502232 | 12.78° C | 33% | 1025.6 hPa | - | - | - | - |
| 1777501332 | 13.89° C | 31% | 1025.5 hPa | - | - | - | - |
| 1777500432 | 12.78° C | 34% | 1025.5 hPa | - | - | - | - |
| 1777499532 | 14.44° C | 29% | 1025.3 hPa | - | - | - | - |
| 1777498632 | 13.89° C | 37% | 1025.3 hPa | - | - | - | - |
* Rain since midnight (hover to see other rain measurements)
** Current wind speed in m/s (hover to see current wind gust speed)